createdAt,value
2018-12-30T00:00:01.533Z,1.9
2018-12-30T00:05:02.205Z,1.7
2018-12-30T00:10:01.423Z,1.2
2018-12-30T00:15:06.412Z,0.8
2018-12-30T00:20:01.413Z,0.4
2018-12-30T00:25:01.551Z,0.6
2018-12-30T00:30:06.489Z,0.4
2018-12-30T00:35:01.497Z,0.6
2018-12-30T00:40:01.522Z,0.6
2018-12-30T00:45:01.439Z,1.0
2018-12-30T00:55:01.448Z,0.9
2018-12-30T01:00:01.847Z,1.0
2018-12-30T01:05:01.489Z,1.0
2018-12-30T01:10:01.466Z,0.8
2018-12-30T01:15:06.860Z,0.8
2018-12-30T01:20:06.477Z,0.5
2018-12-30T01:25:01.625Z,0.2
2018-12-30T01:30:02.569Z,0.2
2018-12-30T01:35:01.530Z,0.0
2018-12-30T01:45:01.702Z,0.0
2018-12-30T01:50:01.519Z,0.0
2018-12-30T01:55:01.515Z,0.0
2018-12-30T02:00:01.514Z,0.0
2018-12-30T02:05:01.449Z,0.0
2018-12-30T02:10:01.397Z,0.0
2018-12-30T02:15:01.585Z,0.0
2018-12-30T02:20:02.104Z,0.0
2018-12-30T02:25:01.522Z,0.0
2018-12-30T02:30:01.463Z,0.0
2018-12-30T02:35:06.465Z,0.0
2018-12-30T02:41:03.622Z,0.0
2018-12-30T02:46:02.498Z,0.0
2018-12-30T02:51:01.549Z,0.0
2018-12-30T02:56:01.424Z,0.0
2018-12-30T03:06:06.456Z,0.0
2018-12-30T03:11:01.522Z,0.0
2018-12-30T03:16:01.393Z,0.2
2018-12-30T03:26:01.529Z,0.4
2018-12-30T03:36:06.536Z,0.4
2018-12-30T03:42:01.514Z,0.4
2018-12-30T03:47:02.406Z,0.4
2018-12-30T03:52:09.088Z,0.2
2018-12-30T03:57:06.399Z,0.2
2018-12-30T04:02:06.467Z,0.2
2018-12-30T04:07:01.426Z,0.0
2018-12-30T04:12:01.424Z,0.0
2018-12-30T04:17:01.429Z,0.0
2018-12-30T04:22:01.499Z,0.0
2018-12-30T04:27:01.459Z,0.0
2018-12-30T04:32:01.493Z,0.0
2018-12-30T04:42:01.461Z,0.2
2018-12-30T04:47:01.398Z,0.2
2018-12-30T04:52:01.400Z,0.2
2018-12-30T04:57:01.386Z,0.2
2018-12-30T05:02:01.391Z,0.3
2018-12-30T05:07:01.363Z,0.1
2018-12-30T05:17:01.497Z,0.1
2018-12-30T05:22:01.523Z,0.1
2018-12-30T05:27:01.516Z,0.0
2018-12-30T05:32:01.463Z,0.2
2018-12-30T05:42:01.449Z,0.2
2018-12-30T05:47:06.397Z,0.2
2018-12-30T05:57:01.461Z,0.0
2018-12-30T06:02:01.518Z,0.0
2018-12-30T06:07:01.396Z,0.0
2018-12-30T06:12:01.454Z,0.1
2018-12-30T06:27:06.519Z,0.1
2018-12-30T06:32:01.488Z,0.1
2018-12-30T06:37:01.418Z,0.0
2018-12-30T06:47:01.557Z,0.0
2018-12-30T06:52:01.483Z,0.0
2018-12-30T07:02:01.449Z,0.0
2018-12-30T07:07:01.381Z,0.1
2018-12-30T07:12:01.505Z,0.1
2018-12-30T07:17:01.390Z,0.1
2018-12-30T07:22:01.458Z,0.1
2018-12-30T07:32:01.446Z,0.0
2018-12-30T07:37:01.390Z,0.0
2018-12-30T07:42:01.519Z,0.0
2018-12-30T07:47:02.020Z,0.0
2018-12-30T07:52:01.472Z,0.0
2018-12-30T07:57:01.457Z,0.0
2018-12-30T08:02:01.463Z,0.1
2018-12-30T08:08:01.376Z,0.1
2018-12-30T08:18:01.495Z,0.1
2018-12-30T08:23:06.524Z,0.1
2018-12-30T08:28:02.004Z,0.0
2018-12-30T08:33:01.455Z,0.0
2018-12-30T08:48:01.393Z,0.0
2018-12-30T08:53:01.588Z,0.2
2018-12-30T09:03:01.472Z,0.2
2018-12-30T09:13:06.468Z,0.2
2018-12-30T09:18:01.417Z,0.1
2018-12-30T09:23:01.449Z,0.0
2018-12-30T09:28:06.396Z,0.2
2018-12-30T09:33:01.610Z,0.4
2018-12-30T09:43:01.463Z,0.6
2018-12-30T09:48:01.397Z,0.6
2018-12-30T09:53:01.462Z,0.5
2018-12-30T09:58:01.405Z,0.5
2018-12-30T10:03:06.535Z,0.3
2018-12-30T10:08:06.439Z,0.4
2018-12-30T10:13:01.477Z,0.4
2018-12-30T10:18:01.387Z,0.2
2018-12-30T10:23:01.453Z,0.3
2018-12-30T10:28:01.862Z,0.3
2018-12-30T10:33:01.985Z,0.2
2018-12-30T10:38:01.407Z,0.2
2018-12-30T10:43:06.542Z,0.4
2018-12-30T10:48:01.395Z,0.2
2018-12-30T10:53:01.461Z,0.4
2018-12-30T10:58:01.373Z,0.8
2018-12-30T11:03:01.406Z,1.2
2018-12-30T11:08:01.385Z,1.3
2018-12-30T11:18:01.456Z,1.0
2018-12-30T11:23:06.531Z,0.6
2018-12-30T11:28:06.394Z,0.2
2018-12-30T11:33:06.461Z,0.4
2018-12-30T11:43:01.429Z,0.6
2018-12-30T11:53:01.390Z,0.8
2018-12-30T11:58:01.384Z,0.6
2018-12-30T12:08:01.514Z,0.6
2018-12-30T12:18:02.025Z,0.6
2018-12-30T12:23:01.524Z,0.4
2018-12-30T12:28:01.391Z,0.2
2018-12-30T12:33:01.465Z,0.4
2018-12-30T12:38:01.400Z,0.4
2018-12-30T12:43:02.487Z,0.2
2018-12-30T12:48:01.385Z,0.5
2018-12-30T12:53:01.519Z,0.5
2018-12-30T12:58:01.356Z,0.6
2018-12-30T13:03:06.731Z,0.8
2018-12-30T13:08:01.385Z,0.8
2018-12-30T13:13:06.438Z,0.6
2018-12-30T13:18:11.408Z,1.0
2018-12-30T13:28:01.460Z,0.8
2018-12-30T13:33:01.528Z,1.0
2018-12-30T13:38:06.409Z,0.8
2018-12-30T13:43:01.454Z,0.4
2018-12-30T13:48:01.389Z,0.4
2018-12-30T13:53:01.393Z,0.4
2018-12-30T14:03:01.523Z,0.2
2018-12-30T14:08:01.395Z,0.4
2018-12-30T14:13:01.456Z,0.2
2018-12-30T14:18:01.366Z,0.4
2018-12-30T14:23:01.454Z,0.6
2018-12-30T14:33:06.467Z,0.4
2018-12-30T14:38:01.407Z,0.4
2018-12-30T14:43:01.525Z,0.2
2018-12-30T14:49:06.393Z,0.5
2018-12-30T14:54:01.457Z,1.3
2018-12-30T14:59:01.361Z,1.6
2018-12-30T15:04:01.453Z,1.6
2018-12-30T15:09:01.391Z,1.8
2018-12-30T15:14:01.655Z,1.3
2018-12-30T15:19:01.397Z,0.7
2018-12-30T15:24:01.400Z,0.3
2018-12-30T15:29:01.406Z,0.5
2018-12-30T15:34:01.470Z,0.4
2018-12-30T15:39:06.405Z,0.8
2018-12-30T15:44:01.531Z,0.6
2018-12-30T15:49:01.397Z,1.6
2018-12-30T15:54:06.533Z,3.9
2018-12-30T15:59:11.373Z,4.5
2018-12-30T16:04:01.477Z,5.2
2018-12-30T16:09:01.410Z,5.4
2018-12-30T16:14:06.911Z,4.6
2018-12-30T16:19:01.404Z,2.5
2018-12-30T16:24:01.526Z,2.1
2018-12-30T16:29:01.784Z,1.0
2018-12-30T16:34:01.519Z,0.8
2018-12-30T16:39:01.412Z,0.6
2018-12-30T16:44:01.452Z,0.2
2018-12-30T16:49:01.383Z,0.0
2018-12-30T16:54:01.446Z,0.2
2018-12-30T16:59:01.390Z,0.2
2018-12-30T17:09:01.451Z,0.4
2018-12-30T17:14:01.391Z,0.6
2018-12-30T17:19:01.397Z,0.6
2018-12-30T17:24:01.390Z,0.8
2018-12-30T17:29:01.403Z,0.9
2018-12-30T17:34:01.517Z,1.8
2018-12-30T17:39:06.393Z,2.7
2018-12-30T17:44:01.456Z,2.7
2018-12-30T17:49:02.282Z,2.9
2018-12-30T17:54:01.454Z,3.3
2018-12-30T17:59:01.392Z,2.8
2018-12-30T18:04:01.448Z,2.6
2018-12-30T18:14:01.525Z,2.7
2018-12-30T18:19:02.402Z,2.9
2018-12-30T18:24:01.465Z,2.9
2018-12-30T18:29:01.398Z,3.6
2018-12-30T18:34:01.464Z,4.6
2018-12-30T18:39:01.401Z,4.7
2018-12-30T18:44:01.595Z,5.1
2018-12-30T18:50:01.386Z,5.1
2018-12-30T18:55:01.450Z,4.3
2018-12-30T19:00:01.399Z,3.3
2018-12-30T19:05:01.515Z,3.1
2018-12-30T19:15:06.465Z,3.3
2018-12-30T19:20:01.431Z,4.1
2018-12-30T19:25:01.432Z,5.3
2018-12-30T19:30:06.413Z,6.0
2018-12-30T19:35:01.565Z,6.4
2018-12-30T19:40:01.439Z,5.9
2018-12-30T19:45:01.559Z,5.6
2018-12-30T19:50:01.361Z,5.0
2018-12-30T19:55:06.714Z,4.2
2018-12-30T20:00:01.482Z,4.0
2018-12-30T20:05:02.365Z,3.5
2018-12-30T20:10:06.590Z,2.7
2018-12-30T20:15:01.454Z,2.2
2018-12-30T20:20:06.403Z,2.3
2018-12-30T20:25:01.394Z,1.7
2018-12-30T20:30:01.405Z,2.0
2018-12-30T20:35:01.394Z,3.0
2018-12-30T20:40:01.451Z,3.4
2018-12-30T20:45:01.466Z,3.6
2018-12-30T21:00:11.525Z,3.6
2018-12-30T21:05:06.525Z,3.4
2018-12-30T21:10:01.392Z,3.5
2018-12-30T21:15:01.452Z,3.5
2018-12-30T21:30:01.464Z,3.3
2018-12-30T21:35:02.854Z,3.2
2018-12-30T21:45:01.590Z,2.9
2018-12-30T21:50:01.418Z,3.0
2018-12-30T21:55:01.571Z,3.0
2018-12-30T22:00:06.421Z,3.1
2018-12-30T22:05:01.560Z,3.1
2018-12-30T22:10:03.496Z,3.2
2018-12-30T22:15:01.624Z,3.4
2018-12-30T22:20:01.434Z,3.6
2018-12-30T22:25:01.501Z,4.0
2018-12-30T22:30:01.440Z,4.6
2018-12-30T22:40:01.487Z,5.2
2018-12-30T22:45:07.437Z,5.7
2018-12-30T22:50:01.440Z,6.3
2018-12-30T22:55:01.453Z,6.9
2018-12-30T23:00:01.411Z,7.9
2018-12-30T23:05:01.456Z,8.1
2018-12-30T23:10:01.506Z,8.4
2018-12-30T23:15:01.528Z,7.8
2018-12-30T23:20:01.394Z,7.1
2018-12-30T23:25:06.526Z,6.4
2018-12-30T23:30:01.452Z,6.1
2018-12-30T23:35:01.460Z,5.7
2018-12-30T23:40:01.396Z,5.5
2018-12-30T23:45:01.459Z,5.6
2018-12-30T23:50:01.404Z,6.2
2018-12-30T23:55:01.736Z,6.5
